Historique des mesures à Cassis (13260), France
Quotidien Résumé Janvier 20, 2018 Unités:  Métrique/US    US   Métrique
« Précédent (Jour)
Suivant (Jour) »
Quotidien Hebdomadaire Mensuel Annuel Période au choix
  Maximum: Minimum: Moyenne:
Température: 32 °F /  TemperatureC °C 47.8 °F /  8.8 °C 50.5 °F /  10.3 °C
Point de rosée: 32 °F /  DewpointC °C 29.1 °F /  -1.6 °C 37.8 °F /  3.2 °C
Humidité: Humidity % 48 % 59 %
Vitesse du vent: WindSpeedKMH mph /  0 km/h - 10.8 mph /  17.4 km/h
Rafales: WindSpeedGustKMH mph /  0 km/h - -
Vent:- - WSW
Pression: 0 in /  PressurehPa hPa 29.7 in /  1006.7 hPa -
Précipitations: 63.5 in /  2.5 mm    
Historical Graphs
 
 
Mesures pour : Janvier 20, 2018
Heure Temperature Point de rosée Pression Vent Vitesse du vent Rafales Humidité Pluie (par heure) Conditions
32 °F /  TemperatureC °C 32 °F /  DewpointC °C 0 in /  PressurehPa hPa Calm     Humidity % 0 in /  HourlyPrecipMM mm SoftwareType W/m2
00:12 50.7 °F /  10.4 °C 36 °F /  2.2 °C 29.9 in /  1013.8 hPa NNW 11.1 mph /  17.9 km/h 16.9 mph /  27.2 km/h 57 % 0 in /  0.0 mm open2300-1.11 W/m2
01:12 50.4 °F /  10.2 °C 34.9 °F /  1.6 °C 29.9 in /  1013.4 hPa NW 23.8 mph /  38.3 km/h 23.8 mph /  38.3 km/h 55 % 0 in /  0.0 mm open2300-1.11 W/m2
02:12 50.2 °F /  10.1 °C 33.6 °F /  0.9 °C 29.9 in /  1013.1 hPa NW 12.2 mph /  19.6 km/h 12.2 mph /  19.6 km/h 53 % 0 in /  0.0 mm open2300-1.11 W/m2
03:12 49.8 °F /  9.9 °C 32.5 °F /  0.3 °C 29.9 in /  1013.1 hPa WNW 29.1 mph /  46.8 km/h 29.1 mph /  46.8 km/h 51 % 0 in /  0.0 mm open2300-1.11 W/m2
04:12 49.1 °F /  9.5 °C 31.3 °F /  -0.4 °C 29.9 in /  1013.1 hPa NNW 22.7 mph /  36.5 km/h 22.7 mph /  36.5 km/h 50 % 0 in /  0.0 mm open2300-1.11 W/m2
05:12 48.7 °F /  9.3 °C 30.4 °F /  -0.9 °C 29.9 in /  1012.8 hPa North 14.0 mph /  22.5 km/h 21.9 mph /  35.2 km/h 49 % 0 in /  0.0 mm open2300-1.11 W/m2
06:12 48.4 °F /  9.1 °C 29.5 °F /  -1.4 °C 29.9 in /  1013.1 hPa WNW 22.4 mph /  36 km/h 22.4 mph /  36 km/h 48 % 0 in /  0.0 mm open2300-1.11 W/m2
07:12 48 °F /  8.9 °C 29.1 °F /  -1.6 °C 29.9 in /  1014.1 hPa NNW 11.1 mph /  17.9 km/h 12.2 mph /  19.6 km/h 48 % 0 in /  0.0 mm open2300-1.11 W/m2
08:12 47.8 °F /  8.8 °C 30 °F /  -1.1 °C 30 in /  1014.4 hPa NNW 5.0 mph /  8 km/h 5.0 mph /  8 km/h 50 % 0 in /  0.0 mm open2300-1.11 W/m2
09:12 49.6 °F /  9.8 °C 31.8 °F /  -0.1 °C 30 in /  1015.1 hPa West 14.3 mph /  23 km/h 14.3 mph /  23 km/h 50 % 0 in /  0.0 mm open2300-1.11 W/m2
10:12 49.8 °F /  9.9 °C 32.5 °F /  0.3 °C 30 in /  1015.1 hPa North 5.0 mph /  8 km/h 7.6 mph /  12.2 km/h 51 % 0 in /  0.0 mm open2300-1.11 W/m2
11:12 50.4 °F /  10.2 °C 33.4 °F /  0.8 °C 30 in /  1015.1 hPa NW 4.7 mph /  7.6 km/h 4.7 mph /  7.6 km/h 52 % 0 in /  0.0 mm open2300-1.11 W/m2
12:12 51.3 °F /  10.7 °C 34.7 °F /  1.5 °C 29.9 in /  1014.1 hPa West 8.2 mph /  13.2 km/h 8.2 mph /  13.2 km/h 53 % 0 in /  0.0 mm open2300-1.11 W/m2
13:12 51.3 °F /  10.7 °C 36 °F /  2.2 °C 29.9 in /  1013.1 hPa Calm   1.8 mph /  2.9 km/h 56 % 0 in /  0.0 mm open2300-1.11 W/m2
14:12 50.9 °F /  10.5 °C 35.8 °F /  2.1 °C 29.9 in /  1011.7 hPa Calm   5.0 mph /  8 km/h 56 % 0 in /  0.0 mm open2300-1.11 W/m2
15:12 51.4 °F /  10.8 °C 40.5 °F /  4.7 °C 29.8 in /  1010.7 hPa Calm   7.2 mph /  11.6 km/h 66 % 0 in /  0.0 mm open2300-1.11 W/m2
16:12 51.1 °F /  10.6 °C 43.2 °F /  6.2 °C 29.8 in /  1009.7 hPa Calm     74 % 12.7 in /  0.5 mm open2300-1.11 W/m2
17:12 52 °F /  11.1 °C 45.3 °F /  7.4 °C 29.8 in /  1009.4 hPa NW 2.9 mph /  4.7 km/h 14.8 mph /  23.8 km/h 78 % 12.7 in /  0.5 mm open2300-1.11 W/m2
18:12 53.4 °F /  11.9 °C 46.8 °F /  8.2 °C 29.8 in /  1008.7 hPa WSW 16.9 mph /  27.2 km/h 20.1 mph /  32.3 km/h 78 % 0 in /  0.0 mm open2300-1.11 W/m2
19:12 54.7 °F /  12.6 °C 47.1 °F /  8.4 °C 29.8 in /  1008.4 hPa SSW 2.9 mph /  4.7 km/h 8.2 mph /  13.2 km/h 76 % 0 in /  0.0 mm open2300-1.11 W/m2
20:12 55.2 °F /  12.9 °C 48.4 °F /  9.1 °C 29.8 in /  1008.0 hPa WNW 15.1 mph /  24.3 km/h 28.5 mph /  45.9 km/h 78 % 0 in /  0.0 mm open2300-1.11 W/m2
21:12 55.2 °F /  12.9 °C 48.7 °F /  9.3 °C 29.7 in /  1007.3 hPa North 8.2 mph /  13.2 km/h 32.8 mph /  52.8 km/h 79 % 0 in /  0.0 mm open2300-1.11 W/m2
22:12 55.2 °F /  12.9 °C 49.1 °F /  9.5 °C 29.7 in /  1006.7 hPa West 17.7 mph /  28.5 km/h 28.2 mph /  45.4 km/h 80 % 0 in /  0.0 mm open2300-1.11 W/m2
23:12 55.9 °F /  13.3 °C 49.8 °F /  9.9 °C 29.7 in /  1006.7 hPa WNW 23.0 mph /  37 km/h 23.0 mph /  37 km/h 80 % 0 in /  0.0 mm open2300-1.11 W/m2
Observations météo à CASSIS
WU-History script by Weather Underground - 1 mb